Decoded Metar for KALN (ALTON/ST LOUIS R in IL, USA) (IATA:ALN) | Meteo·Mobile Aviation Weather
aviador You're here:

KALN Decoded Metar

ALTON/ST LOUIS R in IL, USA
Report Time2018-11-19 00:45:00
UTC Time2018-11-19 01:20:04
Flight Rules ifr IFR
Wind020° at 05 kt
W.Decomp.*RWY 35: 4.3 kt HW 2.6 kt RCW
RWY 11: 0.1 kt HW 5 kt LCW
W.Rank020° ranks 33
Current wind is below 020° avg. (6.9)
Visibility9999 m
Phenomena:N/A
Clouds:Overcast 007 Hf
Ceiling700 ft
Temp01°C (ISA -13)
Dew Point01°C (100% RH)
AAT-2.6°C
QNH1023 hPa
Density Alt-1,276 ft
Elevation545 ft
Report Wrong Elevation
Raw Report
KALN 190045Z 02005KT 7SM OVC007 01/01 A3022=

Extra information for KALN:More info

Metar Taf Metar & Taf Last 4 Metars F.Rules Stats Wind Profile Meteogram Temp Stats Airport Information Weather charts Add Link Nearby VenuesMetar ALERT Operation Metar Decoded Social comments

AIRNAV info for KALN